Time;durP1;ratioP1;P1;durP2;ratioP2;P2;SDS_P1;SDS_P2;PMS_P1;PMS_P2;Temp;Humidity;BMP_temperature;BMP_pressure;BME280_temperature;BME280_humidity;BME280_pressure;Samples;Min_cycle;Max_cycle;Signal;HPM_P1;HPM_P2
2023/05/13 00:00:41;;;;;;;7.90;4.57;;;;;;;;;;5081947;28;20465;-68
2023/05/13 00:03:10;;;;;;;5.40;4.30;;;;;;;;;;5096610;28;20452;-68
2023/05/13 00:05:39;;;;;;;8.30;4.40;;;;;;;;;;5098452;28;20459;-68
2023/05/13 00:08:07;;;;;;;4.43;3.63;;;;;;;;;;5098647;28;20456;-69
2023/05/13 00:10:37;;;;;;;6.93;4.40;;;;;;;;;;5098787;28;21073;-68
2023/05/13 00:13:04;;;;;;;6.80;4.27;;;;;;;;;;5085298;28;20574;-69
2023/05/13 00:15:32;;;;;;;7.10;3.90;;;;;;;;;;5080463;28;20457;-68
2023/05/13 00:18:05;;;;;;;7.07;4.23;;;;;;;;;;5090648;28;20479;-68
2023/05/13 00:20:32;;;;;;;6.70;3.97;;;;;;;;;;5097639;28;20931;-70
2023/05/13 00:23:02;;;;;;;7.97;3.70;;;;;;;;;;5093255;28;20790;-69
2023/05/13 00:25:31;;;;;;;6.50;4.43;;;;;;;;;;5083957;28;20461;-68
2023/05/13 00:27:59;;;;;;;7.60;4.37;;;;;;;;;;5096332;28;20950;-69
2023/05/13 00:30:40;;;;;;;6.53;4.30;;;;;;;;;;5098845;28;20435;-69
2023/05/13 00:33:08;;;;;;;5.33;4.30;;;;;;;;;;5098470;28;20466;-68
2023/05/13 00:35:37;;;;;;;5.10;3.53;;;;;;;;;;5096232;28;20452;-69
2023/05/13 00:38:10;;;;;;;6.63;4.60;;;;;;;;;;5092990;28;20492;-69
2023/05/13 00:40:43;;;;;;;7.60;4.50;;;;;;;;;;5097007;28;20796;-69
2023/05/13 00:43:13;;;;;;;6.90;4.67;;;;;;;;;;5095690;28;20525;-69
2023/05/13 00:45:41;;;;;;;7.90;3.93;;;;;;;;;;5076963;28;20514;-68
2023/05/13 00:48:13;;;;;;;6.17;3.80;;;;;;;;;;5076042;28;20457;-69
2023/05/13 00:50:43;;;;;;;5.50;4.40;;;;;;;;;;5079799;28;20456;-69
2023/05/13 00:53:13;;;;;;;6.40;4.07;;;;;;;;;;5079458;28;20448;-68
2023/05/13 00:55:46;;;;;;;6.30;5.00;;;;;;;;;;5079489;28;20449;-68
2023/05/13 00:58:13;;;;;;;7.10;4.73;;;;;;;;;;5080260;28;20480;-70
2023/05/13 01:00:55;;;;;;;7.27;4.00;;;;;;;;;;5100880;28;20815;-68
2023/05/13 01:03:27;;;;;;;7.27;4.50;;;;;;;;;;5099454;28;20492;-70
2023/05/13 01:06:00;;;;;;;5.53;4.60;;;;;;;;;;5098156;28;20519;-69
2023/05/13 01:08:33;;;;;;;6.37;4.47;;;;;;;;;;5098747;28;20506;-69
2023/05/13 01:11:04;;;;;;;7.30;3.90;;;;;;;;;;5099277;28;20455;-69
2023/05/13 01:13:32;;;;;;;9.23;4.00;;;;;;;;;;5098606;28;20475;-68
2023/05/13 01:16:02;;;;;;;7.43;4.60;;;;;;;;;;5098880;28;20464;-69
2023/05/13 01:18:32;;;;;;;7.10;5.17;;;;;;;;;;5097187;28;20488;-68
2023/05/13 01:21:01;;;;;;;6.13;4.50;;;;;;;;;;5099135;28;20558;-69
2023/05/13 01:23:30;;;;;;;5.83;3.67;;;;;;;;;;5098096;28;20483;-68
2023/05/13 01:25:58;;;;;;;5.00;3.93;;;;;;;;;;5098532;28;20456;-68
2023/05/13 01:28:26;;;;;;;7.60;4.40;;;;;;;;;;5098442;28;20495;-68
2023/05/13 01:30:55;;;;;;;7.57;4.20;;;;;;;;;;5098540;28;20488;-68
2023/05/13 01:33:22;;;;;;;5.40;4.00;;;;;;;;;;5098417;28;20463;-68
2023/05/13 01:35:50;;;;;;;5.20;4.40;;;;;;;;;;5097897;28;20487;-68
2023/05/13 01:38:19;;;;;;;5.37;3.33;;;;;;;;;;5096992;28;20934;-68
2023/05/13 01:40:49;;;;;;;6.73;3.80;;;;;;;;;;5097344;28;20548;-70
2023/05/13 01:43:23;;;;;;;4.57;3.83;;;;;;;;;;5098104;28;20475;-69
2023/05/13 01:45:59;;;;;;;4.80;4.10;;;;;;;;;;5098995;28;20456;-68
2023/05/13 01:48:27;;;;;;;4.10;3.70;;;;;;;;;;5099061;28;20463;-69
2023/05/13 01:50:56;;;;;;;7.67;4.70;;;;;;;;;;5100031;28;20456;-69
2023/05/13 01:53:32;;;;;;;5.63;4.70;;;;;;;;;;5096589;28;20464;-68
2023/05/13 01:56:11;;;;;;;5.37;4.13;;;;;;;;;;5098008;28;20478;-69
2023/05/13 01:58:39;;;;;;;5.47;3.97;;;;;;;;;;5097928;28;20503;-67
2023/05/13 02:01:07;;;;;;;5.57;3.90;;;;;;;;;;5098436;28;20706;-68
2023/05/13 02:03:36;;;;;;;6.53;4.73;;;;;;;;;;5097711;28;20635;-68
2023/05/13 02:06:04;;;;;;;6.10;4.20;;;;;;;;;;5097288;28;20452;-69
2023/05/13 02:08:32;;;;;;;8.23;4.57;;;;;;;;;;5097819;28;20471;-68
2023/05/13 02:11:04;;;;;;;6.43;4.90;;;;;;;;;;5098834;28;20467;-69
2023/05/13 02:13:33;;;;;;;6.47;4.30;;;;;;;;;;5098203;28;20445;-68
2023/05/13 02:16:04;;;;;;;11.83;6.33;;;;;;;;;;5098410;28;20470;-69
2023/05/13 02:18:33;;;;;;;5.10;4.33;;;;;;;;;;5097175;28;20484;-68
2023/05/13 02:21:01;;;;;;;5.83;4.70;;;;;;;;;;5099182;28;20470;-69
2023/05/13 02:23:35;;;;;;;7.70;4.80;;;;;;;;;;5097702;28;20460;-69
2023/05/13 02:26:05;;;;;;;5.00;4.07;;;;;;;;;;5098799;28;20534;-69
2023/05/13 02:28:44;;;;;;;12.40;4.33;;;;;;;;;;5098145;28;20440;-68
2023/05/13 02:31:12;;;;;;;8.73;4.50;;;;;;;;;;5101273;28;20456;-69
2023/05/13 02:33:40;;;;;;;5.57;4.20;;;;;;;;;;5101221;28;20443;-69
2023/05/13 02:36:12;;;;;;;4.90;4.40;;;;;;;;;;5101753;28;20465;-68
2023/05/13 02:38:40;;;;;;;7.67;4.83;;;;;;;;;;5102499;28;20480;-68
2023/05/13 02:41:09;;;;;;;6.87;4.53;;;;;;;;;;5102810;28;20452;-68
2023/05/13 02:43:36;;;;;;;5.77;4.73;;;;;;;;;;5102643;28;20482;-69
2023/05/13 02:46:04;;;;;;;7.50;4.80;;;;;;;;;;5101691;28;20935;-68
2023/05/13 02:48:31;;;;;;;6.70;4.20;;;;;;;;;;5101923;28;20458;-68
2023/05/13 02:50:59;;;;;;;8.23;4.70;;;;;;;;;;5102953;28;20470;-68
2023/05/13 02:53:27;;;;;;;8.43;4.90;;;;;;;;;;5101729;28;20464;-68
2023/05/13 02:55:54;;;;;;;6.20;4.17;;;;;;;;;;5101314;28;20738;-68
2023/05/13 02:58:23;;;;;;;11.40;5.03;;;;;;;;;;5101187;28;21024;-68
2023/05/13 03:00:56;;;;;;;6.60;4.60;;;;;;;;;;5101273;28;20513;-67
2023/05/13 03:03:23;;;;;;;6.17;4.40;;;;;;;;;;5100254;28;20455;-68
2023/05/13 03:05:54;;;;;;;5.90;4.90;;;;;;;;;;5100833;28;20456;-69
2023/05/13 03:08:21;;;;;;;7.23;5.77;;;;;;;;;;5101110;28;20460;-67
2023/05/13 03:10:58;;;;;;;7.80;4.60;;;;;;;;;;5099723;28;20462;-68
2023/05/13 03:13:27;;;;;;;8.33;4.40;;;;;;;;;;5099282;28;20490;-69
2023/05/13 03:15:55;;;;;;;8.37;5.53;;;;;;;;;;5099502;28;20551;-70
2023/05/13 03:18:22;;;;;;;5.43;4.60;;;;;;;;;;5097904;28;20456;-68
2023/05/13 03:20:53;;;;;;;8.90;4.53;;;;;;;;;;5099607;28;20886;-68
2023/05/13 03:23:20;;;;;;;5.90;4.50;;;;;;;;;;5099390;28;20470;-69
2023/05/13 03:25:47;;;;;;;6.70;4.60;;;;;;;;;;5099726;28;20556;-68
2023/05/13 03:28:15;;;;;;;6.90;5.43;;;;;;;;;;5100038;28;20491;-68
2023/05/13 03:30:44;;;;;;;6.07;4.53;;;;;;;;;;5099517;28;20704;-69
2023/05/13 03:33:11;;;;;;;6.93;5.03;;;;;;;;;;5100321;28;20475;-68
2023/05/13 03:35:41;;;;;;;7.43;4.77;;;;;;;;;;5099960;28;20466;-68
2023/05/13 03:38:09;;;;;;;10.23;4.80;;;;;;;;;;5100025;28;20892;-69
2023/05/13 03:40:39;;;;;;;5.60;4.73;;;;;;;;;;5098669;28;20492;-69
2023/05/13 03:43:09;;;;;;;7.20;5.13;;;;;;;;;;5098388;28;20436;-68
2023/05/13 03:45:36;;;;;;;6.63;5.07;;;;;;;;;;5097309;28;20486;-69
2023/05/13 03:48:07;;;;;;;10.37;4.87;;;;;;;;;;5096291;28;20718;-69
2023/05/13 03:50:47;;;;;;;5.27;3.87;;;;;;;;;;5097294;28;20444;-68
2023/05/13 03:53:18;;;;;;;5.10;4.57;;;;;;;;;;5079376;28;20474;-68
2023/05/13 03:55:47;;;;;;;5.93;5.27;;;;;;;;;;5096096;28;20876;-69
2023/05/13 03:58:17;;;;;;;6.40;5.20;;;;;;;;;;5096557;28;20468;-69
2023/05/13 04:00:46;;;;;;;6.40;5.10;;;;;;;;;;5098898;28;20590;-69
2023/05/13 04:03:16;;;;;;;8.70;5.70;;;;;;;;;;5098772;28;20491;-68
2023/05/13 04:05:43;;;;;;;7.90;5.60;;;;;;;;;;5099460;28;20734;-69
2023/05/13 04:08:11;;;;;;;6.77;5.60;;;;;;;;;;5100457;28;20957;-69
2023/05/13 04:10:38;;;;;;;10.40;5.60;;;;;;;;;;5101173;28;20475;-70
2023/05/13 04:13:06;;;;;;;9.00;5.73;;;;;;;;;;5098244;28;20521;-68
2023/05/13 04:15:33;;;;;;;6.00;5.13;;;;;;;;;;5099681;28;20852;-69
2023/05/13 04:18:01;;;;;;;8.10;7.07;;;;;;;;;;5098122;28;20451;-68
2023/05/13 04:20:29;;;;;;;6.43;5.50;;;;;;;;;;5089827;28;20489;-68
2023/05/13 04:22:57;;;;;;;6.00;5.13;;;;;;;;;;5090898;28;20626;-68
2023/05/13 04:25:25;;;;;;;7.83;5.63;;;;;;;;;;5097747;28;20466;-68
2023/05/13 04:27:53;;;;;;;9.67;5.80;;;;;;;;;;5098719;28;20516;-69
2023/05/13 04:30:21;;;;;;;6.87;4.93;;;;;;;;;;5098547;28;20432;-68
2023/05/13 04:32:49;;;;;;;7.30;5.63;;;;;;;;;;5099727;28;20467;-68
2023/05/13 04:35:22;;;;;;;20.83;5.97;;;;;;;;;;5090954;28;20456;-68
2023/05/13 04:37:51;;;;;;;6.50;5.20;;;;;;;;;;5100433;28;20914;-69
2023/05/13 04:40:25;;;;;;;9.83;5.30;;;;;;;;;;5092300;28;20476;-68
2023/05/13 04:42:54;;;;;;;7.10;5.43;;;;;;;;;;5100173;28;20466;-68
2023/05/13 04:45:22;;;;;;;7.87;5.40;;;;;;;;;;5097456;28;20444;-69
2023/05/13 04:47:50;;;;;;;5.70;5.13;;;;;;;;;;5099487;28;20472;-69
2023/05/13 04:50:17;;;;;;;7.40;5.23;;;;;;;;;;5101609;28;20543;-68
2023/05/13 04:52:46;;;;;;;6.47;4.83;;;;;;;;;;5100737;28;20723;-68
2023/05/13 04:55:25;;;;;;;9.43;5.60;;;;;;;;;;5101414;28;20445;-69
2023/05/13 04:57:53;;;;;;;10.10;5.30;;;;;;;;;;5100798;28;20545;-69
2023/05/13 05:00:20;;;;;;;5.03;4.50;;;;;;;;;;5082466;28;20542;-68
2023/05/13 05:02:48;;;;;;;6.17;4.97;;;;;;;;;;5083647;28;20551;-69
2023/05/13 05:05:20;;;;;;;6.90;4.60;;;;;;;;;;5089921;28;20488;-69
2023/05/13 05:07:52;;;;;;;6.23;4.97;;;;;;;;;;5114706;28;20462;-69
2023/05/13 05:10:27;;;;;;;7.80;4.70;;;;;;;;;;5116244;28;20443;-70
2023/05/13 05:13:00;;;;;;;6.17;5.00;;;;;;;;;;5116378;28;20450;-69
2023/05/13 05:15:28;;;;;;;7.00;4.47;;;;;;;;;;5117586;28;20477;-68
2023/05/13 05:17:58;;;;;;;8.57;4.67;;;;;;;;;;5102052;28;20484;-69
2023/05/13 05:20:25;;;;;;;6.30;4.60;;;;;;;;;;5097198;28;20775;-69
2023/05/13 05:22:54;;;;;;;9.13;5.10;;;;;;;;;;5095695;28;20468;-69
2023/05/13 05:25:24;;;;;;;12.13;5.10;;;;;;;;;;5097336;28;20475;-68
2023/05/13 05:27:55;;;;;;;7.00;4.60;;;;;;;;;;5089072;28;20852;-69
2023/05/13 05:30:23;;;;;;;7.40;5.13;;;;;;;;;;5076754;28;20469;-69
2023/05/13 05:32:51;;;;;;;9.70;4.87;;;;;;;;;;5076762;28;20441;-69
2023/05/13 05:35:19;;;;;;;5.33;4.70;;;;;;;;;;5076666;28;20518;-69
2023/05/13 05:37:46;;;;;;;7.33;4.43;;;;;;;;;;5076777;28;20556;-69
2023/05/13 05:40:14;;;;;;;5.23;4.23;;;;;;;;;;5074828;28;20488;-69
2023/05/13 05:42:43;;;;;;;7.30;4.97;;;;;;;;;;5075700;28;20476;-69
2023/05/13 05:45:12;;;;;;;6.73;3.90;;;;;;;;;;5088739;28;21561;-68
2023/05/13 05:47:39;;;;;;;4.17;3.27;;;;;;;;;;5097215;28;20840;-69
2023/05/13 05:50:07;;;;;;;6.47;4.60;;;;;;;;;;5093002;28;20460;-70
2023/05/13 05:52:35;;;;;;;5.23;4.67;;;;;;;;;;5092965;28;20484;-69
2023/05/13 05:55:06;;;;;;;7.87;4.70;;;;;;;;;;5087512;28;20452;-69
2023/05/13 05:57:42;;;;;;;8.63;4.53;;;;;;;;;;5084187;28;20480;-69
2023/05/13 06:00:15;;;;;;;12.53;4.60;;;;;;;;;;5097021;28;20883;-68
2023/05/13 06:02:45;;;;;;;6.93;4.17;;;;;;;;;;5082745;28;20444;-68
2023/05/13 06:05:13;;;;;;;7.60;4.20;;;;;;;;;;5094853;28;20459;-68
2023/05/13 06:07:41;;;;;;;8.03;4.27;;;;;;;;;;5093635;28;20525;-68
2023/05/13 06:10:10;;;;;;;8.27;5.50;;;;;;;;;;5082189;28;21183;-68
2023/05/13 06:12:39;;;;;;;11.20;5.00;;;;;;;;;;5072257;28;20527;-67
2023/05/13 06:15:15;;;;;;;6.83;5.27;;;;;;;;;;5074502;28;20613;-67
2023/05/13 06:17:51;;;;;;;6.43;4.70;;;;;;;;;;5080125;28;20531;-69
2023/05/13 06:20:28;;;;;;;7.20;5.20;;;;;;;;;;5095752;28;20475;-69
2023/05/13 06:23:06;;;;;;;4.83;3.90;;;;;;;;;;5077549;28;20470;-68
2023/05/13 06:25:39;;;;;;;9.73;5.20;;;;;;;;;;5074520;28;20502;-69
2023/05/13 06:28:21;;;;;;;5.50;4.10;;;;;;;;;;5094878;28;20520;-71
2023/05/13 06:31:00;;;;;;;7.93;4.37;;;;;;;;;;5083765;28;20465;-71
2023/05/13 06:33:35;;;;;;;5.57;4.00;;;;;;;;;;5075540;28;20515;-69
2023/05/13 06:36:02;;;;;;;7.13;5.10;;;;;;;;;;5093554;28;20452;-69
2023/05/13 06:38:33;;;;;;;6.90;4.40;;;;;;;;;;5082893;28;20464;-70
2023/05/13 06:41:01;;;;;;;5.30;4.10;;;;;;;;;;5096253;28;20491;-69
2023/05/13 06:43:29;;;;;;;6.00;4.30;;;;;;;;;;5096155;28;20471;-70
2023/05/13 06:45:57;;;;;;;7.37;6.00;;;;;;;;;;5096017;28;20467;-70
2023/05/13 06:48:25;;;;;;;8.80;4.83;;;;;;;;;;5083096;28;20464;-70
2023/05/13 06:50:55;;;;;;;5.00;4.50;;;;;;;;;;5095855;28;20487;-70
2023/05/13 06:53:25;;;;;;;8.60;4.80;;;;;;;;;;5077379;28;20453;-69
2023/05/13 06:55:56;;;;;;;5.57;4.40;;;;;;;;;;5072995;28;20448;-69
2023/05/13 06:58:23;;;;;;;10.40;7.10;;;;;;;;;;5080470;28;20468;-68
2023/05/13 07:00:53;;;;;;;5.33;4.67;;;;;;;;;;5075122;28;20567;-68
2023/05/13 07:03:23;;;;;;;5.60;4.20;;;;;;;;;;5075480;28;20563;-68
2023/05/13 07:05:56;;;;;;;4.97;4.20;;;;;;;;;;5077974;28;20670;-68
2023/05/13 07:08:25;;;;;;;7.40;6.23;;;;;;;;;;5096115;28;20728;-70
2023/05/13 07:10:53;;;;;;;8.97;6.10;;;;;;;;;;5095968;28;20523;-70
2023/05/13 07:13:21;;;;;;;6.00;5.17;;;;;;;;;;5095522;28;20460;-69
2023/05/13 07:15:49;;;;;;;7.33;4.40;;;;;;;;;;5094641;28;20554;-69
2023/05/13 07:18:18;;;;;;;6.20;4.07;;;;;;;;;;5098583;28;20466;-69
2023/05/13 07:20:45;;;;;;;6.03;4.37;;;;;;;;;;5098928;28;20484;-69
2023/05/13 07:23:13;;;;;;;5.63;4.60;;;;;;;;;;5091685;28;20585;-68
2023/05/13 07:25:43;;;;;;;5.80;4.20;;;;;;;;;;5098159;28;20820;-70
2023/05/13 07:28:22;;;;;;;6.97;4.67;;;;;;;;;;5092068;28;20488;-71
2023/05/13 07:30:52;;;;;;;4.80;4.20;;;;;;;;;;5100177;28;20444;-70
2023/05/13 07:33:24;;;;;;;5.50;3.80;;;;;;;;;;5098761;28;20575;-70
2023/05/13 07:35:54;;;;;;;8.17;4.50;;;;;;;;;;5099425;28;20460;-70
2023/05/13 07:38:22;;;;;;;6.37;4.10;;;;;;;;;;5100677;28;20480;-69
2023/05/13 07:40:52;;;;;;;7.70;5.73;;;;;;;;;;5099442;28;20612;-69
2023/05/13 07:43:22;;;;;;;5.00;3.97;;;;;;;;;;5104082;28;20455;-69
2023/05/13 07:46:04;;;;;;;6.87;4.77;;;;;;;;;;5079617;28;20461;-70
2023/05/13 07:48:43;;;;;;;7.50;4.80;;;;;;;;;;5098012;28;20521;-70
2023/05/13 07:51:11;;;;;;;5.70;3.97;;;;;;;;;;5107064;28;20464;-69
2023/05/13 07:53:39;;;;;;;6.90;4.17;;;;;;;;;;5109241;28;20464;-69
2023/05/13 07:56:11;;;;;;;6.80;3.97;;;;;;;;;;5096967;28;20451;-70
2023/05/13 07:58:39;;;;;;;9.30;4.43;;;;;;;;;;5107801;28;20440;-69
2023/05/13 08:01:07;;;;;;;7.00;4.47;;;;;;;;;;5085545;28;21062;-69
2023/05/13 08:03:55;;;;;;;5.27;4.13;;;;;;;;;;5088352;28;20461;-69
2023/05/13 08:06:28;;;;;;;11.93;4.83;;;;;;;;;;5086972;28;20570;-67
2023/05/13 08:08:58;;;;;;;12.83;6.97;;;;;;;;;;5083662;28;20814;-68
2023/05/13 08:11:34;;;;;;;6.70;4.80;;;;;;;;;;5086452;28;20464;-68
2023/05/13 08:14:08;;;;;;;6.63;4.40;;;;;;;;;;5078573;28;20912;-68
2023/05/13 08:16:45;;;;;;;8.90;4.80;;;;;;;;;;5075587;28;20452;-69
2023/05/13 08:19:21;;;;;;;6.20;4.23;;;;;;;;;;5075239;28;20512;-70
2023/05/13 08:22:02;;;;;;;5.57;3.70;;;;;;;;;;5074502;28;20487;-69
2023/05/13 08:24:39;;;;;;;6.83;4.73;;;;;;;;;;5076510;28;20461;-69
2023/05/13 08:27:11;;;;;;;5.67;4.53;;;;;;;;;;5082651;28;20513;-69
2023/05/13 08:29:40;;;;;;;5.33;4.03;;;;;;;;;;5078507;28;20553;-69
2023/05/13 08:32:21;;;;;;;5.60;4.23;;;;;;;;;;5094376;28;20459;-70
2023/05/13 08:34:53;;;;;;;12.33;4.27;;;;;;;;;;5088023;28;20437;-68
2023/05/13 08:37:29;;;;;;;4.97;3.70;;;;;;;;;;5076106;28;20453;-69
2023/05/13 08:40:12;;;;;;;9.30;5.13;;;;;;;;;;5086493;28;20475;-70
2023/05/13 08:42:44;;;;;;;7.17;4.73;;;;;;;;;;5095726;28;20462;-69
2023/05/13 08:45:25;;;;;;;5.90;4.23;;;;;;;;;;5077866;28;20475;-69
2023/05/13 08:48:00;;;;;;;5.60;4.20;;;;;;;;;;5095358;28;20494;-68
2023/05/13 08:50:29;;;;;;;11.00;4.70;;;;;;;;;;5090978;28;20455;-69
2023/05/13 08:52:59;;;;;;;6.07;4.90;;;;;;;;;;5074688;28;20441;-69
2023/05/13 08:55:28;;;;;;;8.10;4.20;;;;;;;;;;5077000;28;20464;-68
2023/05/13 08:58:43;;;;;;;5.83;3.90;;;;;;;;;;5081611;28;20468;-71
2023/05/13 09:01:28;;;;;;;6.33;3.70;;;;;;;;;;5086112;28;20483;-69
2023/05/13 09:04:05;;;;;;;5.50;4.10;;;;;;;;;;5095641;28;20443;-70
2023/05/13 09:06:39;;;;;;;8.40;4.10;;;;;;;;;;5093792;28;20756;-70
2023/05/13 09:09:25;;;;;;;8.30;4.77;;;;;;;;;;5091549;28;20448;-70
2023/05/13 09:12:09;;;;;;;4.77;4.30;;;;;;;;;;5072930;28;20937;-69
2023/05/13 09:14:50;;;;;;;5.53;3.90;;;;;;;;;;5073242;28;21113;-69
2023/05/13 09:17:19;;;;;;;5.63;3.97;;;;;;;;;;5071275;28;20465;-70
2023/05/13 09:19:47;;;;;;;5.07;3.33;;;;;;;;;;5078755;28;20455;-70
2023/05/13 09:22:18;;;;;;;9.63;5.87;;;;;;;;;;5088729;28;20491;-71
2023/05/13 09:24:56;;;;;;;7.53;4.27;;;;;;;;;;5088154;28;20464;-69
2023/05/13 09:27:47;;;;;;;5.07;3.13;;;;;;;;;;5076887;28;21095;-70
2023/05/13 09:33:34;;;;;;;3.80;3.30;;;;;;;;;;5089022;28;20459;-70
2023/05/13 09:36:07;;;;;;;4.70;3.50;;;;;;;;;;5084483;28;20478;-70
2023/05/13 09:38:38;;;;;;;5.20;2.93;;;;;;;;;;5080487;28;20453;-69
2023/05/13 09:41:06;;;;;;;4.43;3.20;;;;;;;;;;5085367;28;20503;-70
2023/05/13 09:43:35;;;;;;;9.17;3.70;;;;;;;;;;5075900;28;20476;-70
2023/05/13 09:46:05;;;;;;;7.80;4.07;;;;;;;;;;5071806;28;20526;-68
2023/05/13 09:48:45;;;;;;;4.40;3.37;;;;;;;;;;5076515;28;20466;-69
2023/05/13 09:51:18;;;;;;;4.90;4.40;;;;;;;;;;5084403;28;20468;-70
2023/05/13 09:53:55;;;;;;;4.83;3.60;;;;;;;;;;5087169;28;20444;-71
2023/05/13 09:56:36;;;;;;;7.43;3.50;;;;;;;;;;5087841;28;20456;-70
2023/05/13 09:59:16;;;;;;;5.10;3.17;;;;;;;;;;5072570;28;20461;-72
2023/05/13 10:01:47;;;;;;;3.30;2.40;;;;;;;;;;5082093;28;20482;-71
2023/05/13 10:04:16;;;;;;;5.57;2.70;;;;;;;;;;5088089;28;20490;-70
2023/05/13 10:06:45;;;;;;;4.43;2.63;;;;;;;;;;5087279;28;20494;-69
2023/05/13 10:09:16;;;;;;;5.57;3.20;;;;;;;;;;5078042;28;20499;-71
2023/05/13 10:11:46;;;;;;;6.40;3.70;;;;;;;;;;5080043;28;20441;-70
2023/05/13 10:14:21;;;;;;;7.90;4.17;;;;;;;;;;5073659;28;20468;-70
2023/05/13 10:17:22;;;;;;;5.73;3.20;;;;;;;;;;5083718;28;20491;-70
2023/05/13 10:25:34;;;;;;;6.17;3.20;;;;;;;;;;5091628;28;20448;-71
2023/05/13 10:28:04;;;;;;;7.73;4.40;;;;;;;;;;5089220;28;20474;-71
2023/05/13 10:30:35;;;;;;;4.93;3.13;;;;;;;;;;5081972;28;20904;-71
2023/05/13 10:33:04;;;;;;;4.60;2.90;;;;;;;;;;5096666;28;20502;-71
2023/05/13 10:35:54;;;;;;;5.23;3.00;;;;;;;;;;5073008;28;20453;-70
2023/05/13 10:38:29;;;;;;;5.20;2.60;;;;;;;;;;5072955;28;20448;-71
2023/05/13 10:41:10;;;;;;;3.73;2.80;;;;;;;;;;5072972;28;20494;-71
2023/05/13 10:43:46;;;;;;;7.93;3.37;;;;;;;;;;5074097;28;21055;-70
2023/05/13 10:46:20;;;;;;;5.27;2.87;;;;;;;;;;5074428;28;20460;-70
2023/05/13 10:49:02;;;;;;;4.20;2.57;;;;;;;;;;5092128;28;20451;-71
2023/05/13 10:51:41;;;;;;;4.13;2.60;;;;;;;;;;5094107;28;20517;-71
2023/05/13 10:54:22;;;;;;;6.40;3.10;;;;;;;;;;5095257;28;20931;-71
2023/05/13 10:57:01;;;;;;;4.80;2.57;;;;;;;;;;5076393;28;20495;-71
2023/05/13 10:59:29;;;;;;;5.80;3.00;;;;;;;;;;5076755;28;20455;-71
2023/05/13 11:05:28;;;;;;;4.13;2.47;;;;;;;;;;5101372;28;20978;-70
2023/05/13 11:08:03;;;;;;;8.93;4.10;;;;;;;;;;5078370;28;20447;-71
2023/05/13 11:10:32;;;;;;;4.77;2.57;;;;;;;;;;5077157;28;21063;-69
2023/05/13 11:13:24;;;;;;;4.60;2.67;;;;;;;;;;5076619;28;20504;-70
2023/05/13 11:16:04;;;;;;;6.40;2.60;;;;;;;;;;5080544;28;20452;-70
2023/05/13 11:18:58;;;;;;;4.00;2.27;;;;;;;;;;5072658;28;20452;-71
2023/05/13 11:21:38;;;;;;;8.43;3.30;;;;;;;;;;5091673;28;20472;-70
2023/05/13 11:24:20;;;;;;;5.50;3.10;;;;;;;;;;5076132;28;20579;-71
2023/05/13 11:27:02;;;;;;;5.83;2.70;;;;;;;;;;5074338;28;20608;-70
2023/05/13 11:33:11;;;;;;;3.50;2.50;;;;;;;;;;5084705;28;21075;-69
2023/05/13 11:36:15;;;;;;;6.63;2.80;;;;;;;;;;5096077;28;20456;-71
2023/05/13 11:38:45;;;;;;;3.10;2.30;;;;;;;;;;5093697;28;20767;-71
2023/05/13 11:41:15;;;;;;;9.07;3.30;;;;;;;;;;5089998;28;20838;-71
2023/05/13 11:43:46;;;;;;;4.50;2.70;;;;;;;;;;5095086;28;20467;-70
2023/05/13 11:46:25;;;;;;;3.87;2.60;;;;;;;;;;5083962;28;20460;-71
2023/05/13 11:48:53;;;;;;;4.37;2.13;;;;;;;;;;5077896;28;20931;-71
2023/05/13 11:51:26;;;;;;;3.93;2.00;;;;;;;;;;5094511;28;20879;-71
2023/05/13 11:54:15;;;;;;;3.53;2.30;;;;;;;;;;5087544;28;20459;-72
2023/05/13 11:56:50;;;;;;;6.33;3.60;;;;;;;;;;5092575;28;20561;-71
2023/05/13 11:59:35;;;;;;;7.00;4.50;;;;;;;;;;5095999;28;20459;-73
2023/05/13 12:02:04;;;;;;;5.40;3.00;;;;;;;;;;5091704;28;20471;-71
2023/05/13 12:04:38;;;;;;;4.60;3.30;;;;;;;;;;5092436;28;20516;-71
2023/05/13 12:07:24;;;;;;;4.53;2.17;;;;;;;;;;5091736;28;20479;-70
2023/05/13 12:10:38;;;;;;;;;;;;;;;;;;;;;
2023/05/13 12:13:09;;;;;;;3.40;2.30;;;;;;;;;;5107535;28;20577;-71
2023/05/13 12:15:39;;;;;;;8.57;2.40;;;;;;;;;;5113483;28;20496;-71
2023/05/13 12:18:14;;;;;;;5.70;3.33;;;;;;;;;;5103787;28;20448;-71
2023/05/13 12:20:43;;;;;;;4.93;2.23;;;;;;;;;;5093284;28;20494;-71
2023/05/13 12:23:21;;;;;;;5.83;2.60;;;;;;;;;;5093614;28;20899;-72
2023/05/13 12:25:53;;;;;;;5.37;2.83;;;;;;;;;;5091305;28;20545;-71
2023/05/13 12:28:37;;;;;;;6.33;2.70;;;;;;;;;;5083492;28;20490;-71
2023/05/13 12:37:18;;;;;;;11.23;7.40;;;;;;;;;;5017643;28;20522;-72
2023/05/13 12:39:52;;;;;;;7.40;5.20;;;;;;;;;;5071567;28;20462;-70
2023/05/13 12:43:03;;;;;;;3.80;2.77;;;;;;;;;;5082809;28;20585;-70
2023/05/13 12:45:34;;;;;;;6.60;2.70;;;;;;;;;;5092607;28;20472;-70
2023/05/13 12:48:17;;;;;;;7.23;4.13;;;;;;;;;;5095259;28;20457;-71
2023/05/13 12:50:51;;;;;;;4.17;2.40;;;;;;;;;;5100794;28;20451;-69
2023/05/13 12:53:27;;;;;;;3.63;2.10;;;;;;;;;;5093803;28;20933;-70
2023/05/13 12:55:55;;;;;;;4.40;2.60;;;;;;;;;;5088959;28;20467;-70
2023/05/13 12:58:25;;;;;;;3.50;2.10;;;;;;;;;;5092818;28;20975;-70
2023/05/13 13:00:55;;;;;;;5.90;2.73;;;;;;;;;;5093157;28;20447;-70
2023/05/13 13:03:44;;;;;;;5.47;2.80;;;;;;;;;;5092324;28;20484;-70
2023/05/13 13:06:16;;;;;;;3.83;2.63;;;;;;;;;;5090928;28;20508;-70
2023/05/13 13:08:47;;;;;;;4.40;2.50;;;;;;;;;;5093469;28;20729;-70
2023/05/13 13:11:24;;;;;;;4.40;2.53;;;;;;;;;;5091655;28;20559;-70
2023/05/13 13:13:52;;;;;;;5.47;2.47;;;;;;;;;;5108407;28;20757;-70
2023/05/13 13:16:30;;;;;;;5.80;3.80;;;;;;;;;;5112406;28;20469;-70
2023/05/13 13:21:56;;;;;;;5.70;2.50;;;;;;;;;;5077628;28;20476;-70
2023/05/13 13:24:34;;;;;;;4.77;2.50;;;;;;;;;;5089989;28;20448;-69
2023/05/13 13:27:04;;;;;;;8.67;2.93;;;;;;;;;;5089432;28;20593;-70
2023/05/13 13:29:31;;;;;;;4.90;2.73;;;;;;;;;;5090190;28;20467;-70
2023/05/13 13:32:07;;;;;;;3.50;1.93;;;;;;;;;;5091998;28;20448;-70
2023/05/13 13:34:46;;;;;;;6.40;3.90;;;;;;;;;;5088995;28;20497;-71
2023/05/13 13:37:20;;;;;;;5.27;2.50;;;;;;;;;;5070217;28;20452;-70
2023/05/13 13:39:48;;;;;;;3.30;2.17;;;;;;;;;;5100046;28;20686;-70
2023/05/13 13:42:26;;;;;;;3.00;1.97;;;;;;;;;;5091434;28;20534;-70
2023/05/13 13:45:05;;;;;;;4.40;2.47;;;;;;;;;;5072481;28;20569;-70
2023/05/13 13:47:44;;;;;;;3.03;2.13;;;;;;;;;;5109699;28;20451;-70
2023/05/13 13:50:13;;;;;;;3.37;2.63;;;;;;;;;;5092862;28;20825;-69
2023/05/13 13:52:45;;;;;;;3.63;2.07;;;;;;;;;;5086299;28;20604;-70
2023/05/13 13:55:14;;;;;;;5.23;3.17;;;;;;;;;;5072600;28;20464;-69
2023/05/13 14:00:51;;;;;;;5.50;2.60;;;;;;;;;;5034098;28;20464;-71
2023/05/13 14:03:20;;;;;;;3.87;2.23;;;;;;;;;;5085649;28;20482;-70
2023/05/13 14:05:54;;;;;;;6.20;2.07;;;;;;;;;;5081528;28;20523;-70
2023/05/13 14:08:22;;;;;;;3.97;2.73;;;;;;;;;;5100155;28;20476;-70
2023/05/13 14:10:53;;;;;;;3.23;2.00;;;;;;;;;;5094996;28;20870;-71
2023/05/13 14:16:26;;;;;;;4.53;2.47;;;;;;;;;;5084286;28;20466;-70
2023/05/13 14:19:07;;;;;;;4.10;2.33;;;;;;;;;;5086664;28;20517;-71
2023/05/13 14:21:36;;;;;;;4.10;2.70;;;;;;;;;;5085090;28;20624;-71
2023/05/13 14:24:14;;;;;;;3.77;2.10;;;;;;;;;;5078845;28;20471;-70
2023/05/13 14:26:50;;;;;;;5.03;3.10;;;;;;;;;;5093015;28;20474;-69
2023/05/13 14:29:51;;;;;;;5.43;2.60;;;;;;;;;;5068969;28;20862;-71
2023/05/13 14:32:20;;;;;;;4.73;2.70;;;;;;;;;;5083631;28;20468;-70
2023/05/13 14:35:05;;;;;;;4.37;2.87;;;;;;;;;;5096080;28;20460;-70
2023/05/13 14:37:41;;;;;;;5.03;2.20;;;;;;;;;;5093464;28;21038;-70
2023/05/13 14:40:12;;;;;;;5.40;3.00;;;;;;;;;;5095536;28;20546;-70
2023/05/13 14:42:40;;;;;;;7.30;2.50;;;;;;;;;;5084023;28;20527;-71
2023/05/13 14:45:12;;;;;;;6.50;2.73;;;;;;;;;;5086672;28;20468;-70
2023/05/13 14:47:40;;;;;;;3.70;2.77;;;;;;;;;;5096983;28;20555;-70
2023/05/13 14:50:23;;;;;;;3.60;2.00;;;;;;;;;;5107114;28;20558;-71
2023/05/13 14:52:56;;;;;;;3.27;2.30;;;;;;;;;;5099247;28;20447;-71
2023/05/13 14:55:27;;;;;;;3.57;2.17;;;;;;;;;;5116484;28;20434;-70
2023/05/13 14:57:57;;;;;;;5.80;2.40;;;;;;;;;;5109485;28;20510;-70
2023/05/13 15:00:28;;;;;;;4.00;2.63;;;;;;;;;;5097367;28;20444;-69
2023/05/13 15:03:04;;;;;;;5.30;2.77;;;;;;;;;;5090159;28;20473;-70
2023/05/13 15:05:47;;;;;;;6.73;2.63;;;;;;;;;;5074964;28;20452;-69
2023/05/13 15:08:19;;;;;;;4.20;2.37;;;;;;;;;;5072706;28;20467;-71
2023/05/13 15:10:47;;;;;;;3.43;2.20;;;;;;;;;;5058512;28;20511;-69
2023/05/13 15:13:17;;;;;;;9.40;2.27;;;;;;;;;;5074577;28;20467;-70
2023/05/13 15:15:46;;;;;;;4.13;2.63;;;;;;;;;;5084048;28;20456;-71
2023/05/13 15:18:14;;;;;;;6.20;3.00;;;;;;;;;;5096674;28;20448;-69
2023/05/13 15:20:46;;;;;;;3.93;2.60;;;;;;;;;;5092261;28;20445;-69
2023/05/13 15:23:20;;;;;;;3.40;2.13;;;;;;;;;;5091163;28;20517;-70
2023/05/13 15:25:50;;;;;;;3.90;2.37;;;;;;;;;;5109116;28;20451;-71
2023/05/13 15:28:23;;;;;;;5.33;2.30;;;;;;;;;;5102679;28;20465;-71
2023/05/13 15:30:51;;;;;;;5.60;3.07;;;;;;;;;;5097702;28;20547;-70
2023/05/13 15:33:19;;;;;;;13.53;2.53;;;;;;;;;;5094497;28;20531;-70
2023/05/13 15:35:54;;;;;;;4.27;2.43;;;;;;;;;;5094632;28;20459;-70
2023/05/13 15:38:22;;;;;;;6.23;3.20;;;;;;;;;;5097117;28;20447;-70
2023/05/13 15:40:53;;;;;;;4.80;2.97;;;;;;;;;;5096166;28;20468;-70
2023/05/13 15:43:26;;;;;;;4.43;2.60;;;;;;;;;;5096605;28;20519;-70
2023/05/13 15:46:04;;;;;;;6.20;3.13;;;;;;;;;;5088354;28;20460;-70